Cedar City Regional Airport
KCDC : rendu visible

Aérodrome :











RETROUVEZ-NOUS SUR...

 
LOGIN :

S'inscrire | Disclaimer

   EN    FR    IT 

 









Légende :    VFR   VFR Marginal   IFR   IFR Intensif   IFR Très Intensif
Visi : 
Plafond : 
>= 8 km
>= 3000ft
5 à 8 km
1000 à 3000 ft
1500m à 5 km
500 à 1000 ft
800 à 1500m
200 à 500 ft
< 800m
< 200 ft
Symboles :   Orages  Brouillard  Fortes neiges  Fortes précipitations  Vent > 20 kt






- Altitude de l'aérodrome : 5622 ft
- Code IATA : CDC


KCDC - Cedar City Regional

DERNIER METAR :
  • 310653Z AUTO 19010KT 10SM CLR 21/00 A2999 RMK AO2 SLP065 T02060000 403220150

METARs EXPIRÉS :
  • 310553Z AUTO 19011KT 10SM CLR 21/01 A2999 RMK AO2 SLP061 T02110011 10283 20206 51008
  • 310453Z AUTO 18011KT 10SM CLR 22/01 A2999 RMK AO2 SLP067 T02170011

TAF KCDC
Valide du 31 à 06h jusqu'au 01 à 06h UTC


310533Z 3106/0106 19010KT P6SM FEW150
FM311600 21015G25KT P6SM SCT150
FIR KZLC / Amérique du Nord



MET'MAP, la Météo Aéronautique d'un coup d'oeil ! - Copyright ORBIFLY Décembre 2007 - Disclaimer

ORBIFLY MET'MAP TEAM :

Programmation & Développement : Alexandra Zaïnal
Sur une idée originale de : Baudouin d'Aumeries
Assistance à la programmation : Marc-Olivier Méhu
Soutien technique & logistique : Manuel Goepfert

Contact : metmap@orbifly.com




SOURCES & CREDITS :

   NOAA       Earth
Advisory